sensor_id;sensor_type;location;lat;lon;timestamp;P1;durP1;ratioP1;P2;durP2;ratioP2
69894;SDS011;57172;52.034;5.090;2023-04-24T00:01:57;2.92;;;1.85;;
69894;SDS011;57172;52.034;5.090;2023-04-24T00:04:24;3.88;;;2.13;;
69894;SDS011;57172;52.034;5.090;2023-04-24T00:06:52;4.43;;;1.70;;
69894;SDS011;57172;52.034;5.090;2023-04-24T00:09:23;3.80;;;1.67;;
69894;SDS011;57172;52.034;5.090;2023-04-24T00:11:50;3.67;;;2.00;;
69894;SDS011;57172;52.034;5.090;2023-04-24T00:14:17;2.97;;;1.95;;
69894;SDS011;57172;52.034;5.090;2023-04-24T00:16:44;5.22;;;2.28;;
69894;SDS011;57172;52.034;5.090;2023-04-24T00:19:11;5.18;;;3.03;;
69894;SDS011;57172;52.034;5.090;2023-04-24T00:21:39;6.83;;;3.03;;
69894;SDS011;57172;52.034;5.090;2023-04-24T00:24:07;4.85;;;2.60;;
69894;SDS011;57172;52.034;5.090;2023-04-24T00:26:37;7.13;;;3.38;;
69894;SDS011;57172;52.034;5.090;2023-04-24T00:29:04;5.70;;;2.78;;
69894;SDS011;57172;52.034;5.090;2023-04-24T00:31:30;6.35;;;3.53;;
69894;SDS011;57172;52.034;5.090;2023-04-24T00:33:58;6.07;;;3.10;;
69894;SDS011;57172;52.034;5.090;2023-04-24T00:36:24;6.40;;;3.38;;
69894;SDS011;57172;52.034;5.090;2023-04-24T00:38:53;6.95;;;3.50;;
69894;SDS011;57172;52.034;5.090;2023-04-24T00:41:21;7.30;;;3.05;;
69894;SDS011;57172;52.034;5.090;2023-04-24T00:43:48;6.20;;;3.58;;
69894;SDS011;57172;52.034;5.090;2023-04-24T00:46:16;6.73;;;3.40;;
69894;SDS011;57172;52.034;5.090;2023-04-24T00:48:43;7.00;;;3.65;;
69894;SDS011;57172;52.034;5.090;2023-04-24T00:51:11;7.00;;;3.50;;
69894;SDS011;57172;52.034;5.090;2023-04-24T00:53:46;8.50;;;3.90;;
69894;SDS011;57172;52.034;5.090;2023-04-24T00:56:13;6.90;;;3.58;;
69894;SDS011;57172;52.034;5.090;2023-04-24T00:58:42;8.37;;;3.33;;
69894;SDS011;57172;52.034;5.090;2023-04-24T01:01:09;5.80;;;3.33;;
69894;SDS011;57172;52.034;5.090;2023-04-24T01:03:37;9.68;;;3.83;;
69894;SDS011;57172;52.034;5.090;2023-04-24T01:06:05;9.25;;;3.90;;
69894;SDS011;57172;52.034;5.090;2023-04-24T01:08:32;7.47;;;4.00;;
69894;SDS011;57172;52.034;5.090;2023-04-24T01:11:03;9.10;;;4.17;;
69894;SDS011;57172;52.034;5.090;2023-04-24T01:13:31;7.40;;;4.35;;
69894;SDS011;57172;52.034;5.090;2023-04-24T01:15:59;9.85;;;3.63;;
69894;SDS011;57172;52.034;5.090;2023-04-24T01:18:27;5.15;;;2.80;;
69894;SDS011;57172;52.034;5.090;2023-04-24T01:20:57;8.80;;;3.50;;
69894;SDS011;57172;52.034;5.090;2023-04-24T01:23:25;7.83;;;3.63;;
69894;SDS011;57172;52.034;5.090;2023-04-24T01:25:52;6.38;;;3.70;;
69894;SDS011;57172;52.034;5.090;2023-04-24T01:28:19;6.72;;;3.53;;
69894;SDS011;57172;52.034;5.090;2023-04-24T01:30:47;10.75;;;4.50;;
69894;SDS011;57172;52.034;5.090;2023-04-24T01:33:14;7.40;;;4.00;;
69894;SDS011;57172;52.034;5.090;2023-04-24T01:35:42;7.37;;;3.77;;
69894;SDS011;57172;52.034;5.090;2023-04-24T01:38:09;8.63;;;3.30;;
69894;SDS011;57172;52.034;5.090;2023-04-24T01:40:35;8.48;;;3.60;;
69894;SDS011;57172;52.034;5.090;2023-04-24T01:43:03;6.57;;;2.85;;
69894;SDS011;57172;52.034;5.090;2023-04-24T01:45:30;5.78;;;3.47;;
69894;SDS011;57172;52.034;5.090;2023-04-24T01:47:57;8.13;;;3.90;;
69894;SDS011;57172;52.034;5.090;2023-04-24T01:50:24;6.47;;;3.58;;
69894;SDS011;57172;52.034;5.090;2023-04-24T01:52:51;7.85;;;3.47;;
69894;SDS011;57172;52.034;5.090;2023-04-24T01:55:18;6.68;;;3.60;;
69894;SDS011;57172;52.034;5.090;2023-04-24T01:57:45;7.28;;;3.60;;
69894;SDS011;57172;52.034;5.090;2023-04-24T02:00:12;5.20;;;2.93;;
69894;SDS011;57172;52.034;5.090;2023-04-24T02:02:39;4.88;;;2.15;;
69894;SDS011;57172;52.034;5.090;2023-04-24T02:05:08;4.15;;;2.63;;
69894;SDS011;57172;52.034;5.090;2023-04-24T02:07:36;5.45;;;3.00;;
69894;SDS011;57172;52.034;5.090;2023-04-24T02:10:03;5.20;;;2.50;;
69894;SDS011;57172;52.034;5.090;2023-04-24T02:12:33;5.10;;;2.70;;
69894;SDS011;57172;52.034;5.090;2023-04-24T02:15:00;4.60;;;2.70;;
69894;SDS011;57172;52.034;5.090;2023-04-24T02:17:27;4.50;;;2.80;;
69894;SDS011;57172;52.034;5.090;2023-04-24T02:19:56;6.50;;;3.20;;
69894;SDS011;57172;52.034;5.090;2023-04-24T02:22:22;5.22;;;3.05;;
69894;SDS011;57172;52.034;5.090;2023-04-24T02:24:49;4.87;;;2.70;;
69894;SDS011;57172;52.034;5.090;2023-04-24T02:27:16;5.03;;;2.90;;
69894;SDS011;57172;52.034;5.090;2023-04-24T02:29:43;6.00;;;3.30;;
69894;SDS011;57172;52.034;5.090;2023-04-24T02:32:10;6.53;;;3.50;;
69894;SDS011;57172;52.034;5.090;2023-04-24T02:34:38;7.28;;;3.65;;
69894;SDS011;57172;52.034;5.090;2023-04-24T02:37:05;7.77;;;3.90;;
69894;SDS011;57172;52.034;5.090;2023-04-24T02:39:32;8.00;;;4.03;;
69894;SDS011;57172;52.034;5.090;2023-04-24T02:41:59;7.70;;;4.50;;
69894;SDS011;57172;52.034;5.090;2023-04-24T02:44:26;8.18;;;4.20;;
69894;SDS011;57172;52.034;5.090;2023-04-24T02:46:53;8.38;;;4.65;;
69894;SDS011;57172;52.034;5.090;2023-04-24T02:49:21;7.73;;;4.20;;
69894;SDS011;57172;52.034;5.090;2023-04-24T02:51:48;8.43;;;4.38;;
69894;SDS011;57172;52.034;5.090;2023-04-24T02:54:15;7.90;;;4.10;;
69894;SDS011;57172;52.034;5.090;2023-04-24T02:56:42;7.70;;;4.32;;
69894;SDS011;57172;52.034;5.090;2023-04-24T02:59:09;7.25;;;4.20;;
69894;SDS011;57172;52.034;5.090;2023-04-24T03:01:36;8.13;;;4.13;;
69894;SDS011;57172;52.034;5.090;2023-04-24T03:04:03;7.80;;;4.28;;
69894;SDS011;57172;52.034;5.090;2023-04-24T03:06:30;8.77;;;4.00;;
69894;SDS011;57172;52.034;5.090;2023-04-24T03:08:59;8.10;;;4.40;;
69894;SDS011;57172;52.034;5.090;2023-04-24T03:11:26;7.25;;;4.07;;
69894;SDS011;57172;52.034;5.090;2023-04-24T03:13:53;12.30;;;4.70;;
69894;SDS011;57172;52.034;5.090;2023-04-24T03:16:19;9.43;;;4.40;;
69894;SDS011;57172;52.034;5.090;2023-04-24T03:18:46;8.68;;;4.30;;
69894;SDS011;57172;52.034;5.090;2023-04-24T03:21:14;8.88;;;4.50;;
69894;SDS011;57172;52.034;5.090;2023-04-24T03:23:42;8.60;;;4.88;;
69894;SDS011;57172;52.034;5.090;2023-04-24T03:26:09;8.73;;;4.20;;
69894;SDS011;57172;52.034;5.090;2023-04-24T03:28:42;10.15;;;5.22;;
69894;SDS011;57172;52.034;5.090;2023-04-24T03:31:11;10.82;;;4.90;;
69894;SDS011;57172;52.034;5.090;2023-04-24T03:33:47;9.32;;;4.50;;
69894;SDS011;57172;52.034;5.090;2023-04-24T03:36:13;9.85;;;4.60;;
69894;SDS011;57172;52.034;5.090;2023-04-24T03:38:40;9.10;;;4.50;;
69894;SDS011;57172;52.034;5.090;2023-04-24T03:41:21;8.73;;;4.25;;
69894;SDS011;57172;52.034;5.090;2023-04-24T03:43:53;7.75;;;4.10;;
69894;SDS011;57172;52.034;5.090;2023-04-24T03:46:20;8.15;;;4.15;;
69894;SDS011;57172;52.034;5.090;2023-04-24T03:48:52;7.97;;;3.60;;
69894;SDS011;57172;52.034;5.090;2023-04-24T03:51:24;7.63;;;3.63;;
69894;SDS011;57172;52.034;5.090;2023-04-24T03:53:58;8.88;;;3.72;;
69894;SDS011;57172;52.034;5.090;2023-04-24T03:56:28;9.68;;;4.05;;
69894;SDS011;57172;52.034;5.090;2023-04-24T03:58:55;7.78;;;3.75;;
69894;SDS011;57172;52.034;5.090;2023-04-24T04:01:22;8.45;;;3.85;;
69894;SDS011;57172;52.034;5.090;2023-04-24T04:03:56;6.97;;;3.70;;
69894;SDS011;57172;52.034;5.090;2023-04-24T04:06:25;11.40;;;3.97;;
69894;SDS011;57172;52.034;5.090;2023-04-24T04:08:54;7.90;;;3.17;;
69894;SDS011;57172;52.034;5.090;2023-04-24T04:11:21;5.88;;;3.00;;
69894;SDS011;57172;52.034;5.090;2023-04-24T04:13:47;5.57;;;2.20;;
69894;SDS011;57172;52.034;5.090;2023-04-24T04:16:17;4.57;;;1.67;;
69894;SDS011;57172;52.034;5.090;2023-04-24T04:18:46;2.97;;;1.30;;
69894;SDS011;57172;52.034;5.090;2023-04-24T04:21:14;2.55;;;1.35;;
69894;SDS011;57172;52.034;5.090;2023-04-24T04:23:41;3.80;;;1.40;;
69894;SDS011;57172;52.034;5.090;2023-04-24T04:26:14;2.10;;;1.45;;
69894;SDS011;57172;52.034;5.090;2023-04-24T04:28:58;3.40;;;1.30;;
69894;SDS011;57172;52.034;5.090;2023-04-24T04:31:27;2.88;;;1.30;;
69894;SDS011;57172;52.034;5.090;2023-04-24T04:33:55;5.07;;;1.33;;
69894;SDS011;57172;52.034;5.090;2023-04-24T04:36:22;2.35;;;1.27;;
69894;SDS011;57172;52.034;5.090;2023-04-24T04:38:57;1.67;;;1.10;;
69894;SDS011;57172;52.034;5.090;2023-04-24T04:41:48;2.20;;;1.20;;
69894;SDS011;57172;52.034;5.090;2023-04-24T04:44:17;2.75;;;1.20;;
69894;SDS011;57172;52.034;5.090;2023-04-24T04:46:44;1.92;;;1.13;;
69894;SDS011;57172;52.034;5.090;2023-04-24T04:49:25;2.50;;;1.30;;
69894;SDS011;57172;52.034;5.090;2023-04-24T04:51:55;2.20;;;1.10;;
69894;SDS011;57172;52.034;5.090;2023-04-24T04:54:24;3.50;;;1.17;;
69894;SDS011;57172;52.034;5.090;2023-04-24T04:56:51;2.00;;;1.20;;
69894;SDS011;57172;52.034;5.090;2023-04-24T04:59:18;2.80;;;1.33;;
69894;SDS011;57172;52.034;5.090;2023-04-24T05:01:47;3.05;;;1.20;;
69894;SDS011;57172;52.034;5.090;2023-04-24T05:04:15;2.25;;;1.23;;
69894;SDS011;57172;52.034;5.090;2023-04-24T05:06:43;2.37;;;1.20;;
69894;SDS011;57172;52.034;5.090;2023-04-24T05:09:10;3.33;;;1.42;;
69894;SDS011;57172;52.034;5.090;2023-04-24T05:11:44;3.67;;;1.30;;
69894;SDS011;57172;52.034;5.090;2023-04-24T05:14:11;3.00;;;1.60;;
69894;SDS011;57172;52.034;5.090;2023-04-24T05:16:39;3.30;;;1.50;;
69894;SDS011;57172;52.034;5.090;2023-04-24T05:19:08;2.47;;;1.37;;
69894;SDS011;57172;52.034;5.090;2023-04-24T05:21:38;5.53;;;1.60;;
69894;SDS011;57172;52.034;5.090;2023-04-24T05:24:06;3.97;;;1.60;;
69894;SDS011;57172;52.034;5.090;2023-04-24T05:26:59;5.07;;;1.40;;
69894;SDS011;57172;52.034;5.090;2023-04-24T05:29:33;3.50;;;1.67;;
69894;SDS011;57172;52.034;5.090;2023-04-24T05:32:00;4.27;;;1.57;;
69894;SDS011;57172;52.034;5.090;2023-04-24T05:34:29;4.78;;;1.70;;
69894;SDS011;57172;52.034;5.090;2023-04-24T05:36:56;3.33;;;1.40;;
69894;SDS011;57172;52.034;5.090;2023-04-24T05:39:24;3.33;;;1.48;;
69894;SDS011;57172;52.034;5.090;2023-04-24T05:41:52;3.03;;;1.58;;
69894;SDS011;57172;52.034;5.090;2023-04-24T05:44:19;2.83;;;1.70;;
69894;SDS011;57172;52.034;5.090;2023-04-24T05:46:47;3.03;;;1.52;;
69894;SDS011;57172;52.034;5.090;2023-04-24T05:49:14;3.47;;;1.92;;
69894;SDS011;57172;52.034;5.090;2023-04-24T05:51:42;3.17;;;1.75;;
69894;SDS011;57172;52.034;5.090;2023-04-24T05:54:09;4.25;;;2.08;;
69894;SDS011;57172;52.034;5.090;2023-04-24T05:56:38;3.73;;;1.70;;
69894;SDS011;57172;52.034;5.090;2023-04-24T05:59:15;5.68;;;2.40;;
69894;SDS011;57172;52.034;5.090;2023-04-24T06:01:42;6.30;;;1.50;;
69894;SDS011;57172;52.034;5.090;2023-04-24T06:04:14;5.75;;;1.92;;
69894;SDS011;57172;52.034;5.090;2023-04-24T06:06:41;8.07;;;2.10;;
69894;SDS011;57172;52.034;5.090;2023-04-24T06:09:09;7.30;;;3.30;;
69894;SDS011;57172;52.034;5.090;2023-04-24T06:11:35;6.97;;;3.45;;
69894;SDS011;57172;52.034;5.090;2023-04-24T06:14:02;11.75;;;6.03;;
69894;SDS011;57172;52.034;5.090;2023-04-24T06:16:35;12.00;;;6.55;;
69894;SDS011;57172;52.034;5.090;2023-04-24T06:19:10;17.83;;;7.90;;
69894;SDS011;57172;52.034;5.090;2023-04-24T06:21:37;17.03;;;7.10;;
69894;SDS011;57172;52.034;5.090;2023-04-24T06:24:04;15.98;;;7.75;;
69894;SDS011;57172;52.034;5.090;2023-04-24T06:26:31;18.60;;;7.80;;
69894;SDS011;57172;52.034;5.090;2023-04-24T06:28:59;22.17;;;8.70;;
69894;SDS011;57172;52.034;5.090;2023-04-24T06:31:26;17.10;;;8.98;;
69894;SDS011;57172;52.034;5.090;2023-04-24T06:33:54;23.23;;;9.97;;
69894;SDS011;57172;52.034;5.090;2023-04-24T06:36:21;24.10;;;10.18;;
69894;SDS011;57172;52.034;5.090;2023-04-24T06:38:48;21.05;;;9.93;;
69894;SDS011;57172;52.034;5.090;2023-04-24T06:41:15;25.27;;;9.27;;
69894;SDS011;57172;52.034;5.090;2023-04-24T06:43:42;24.05;;;10.20;;
69894;SDS011;57172;52.034;5.090;2023-04-24T06:46:08;23.10;;;9.13;;
69894;SDS011;57172;52.034;5.090;2023-04-24T06:48:35;21.77;;;10.00;;
69894;SDS011;57172;52.034;5.090;2023-04-24T06:51:02;27.70;;;9.73;;
69894;SDS011;57172;52.034;5.090;2023-04-24T06:53:29;21.98;;;9.07;;
69894;SDS011;57172;52.034;5.090;2023-04-24T06:55:56;24.00;;;9.95;;
69894;SDS011;57172;52.034;5.090;2023-04-24T06:58:24;23.00;;;9.13;;
69894;SDS011;57172;52.034;5.090;2023-04-24T07:00:51;21.67;;;8.05;;
69894;SDS011;57172;52.034;5.090;2023-04-24T07:03:18;21.25;;;8.38;;
69894;SDS011;57172;52.034;5.090;2023-04-24T07:05:46;22.67;;;8.35;;
69894;SDS011;57172;52.034;5.090;2023-04-24T07:08:13;22.67;;;8.30;;
69894;SDS011;57172;52.034;5.090;2023-04-24T07:10:42;21.53;;;7.20;;
69894;SDS011;57172;52.034;5.090;2023-04-24T07:13:10;21.30;;;7.55;;
69894;SDS011;57172;52.034;5.090;2023-04-24T07:15:45;22.40;;;8.20;;
69894;SDS011;57172;52.034;5.090;2023-04-24T07:18:15;21.38;;;7.68;;
69894;SDS011;57172;52.034;5.090;2023-04-24T07:20:42;18.73;;;6.40;;
69894;SDS011;57172;52.034;5.090;2023-04-24T07:23:09;15.63;;;6.30;;
69894;SDS011;57172;52.034;5.090;2023-04-24T07:25:36;19.80;;;6.72;;
69894;SDS011;57172;52.034;5.090;2023-04-24T07:28:03;25.42;;;6.63;;
69894;SDS011;57172;52.034;5.090;2023-04-24T07:30:31;16.70;;;6.88;;
69894;SDS011;57172;52.034;5.090;2023-04-24T07:32:59;20.90;;;6.30;;
69894;SDS011;57172;52.034;5.090;2023-04-24T07:35:26;24.70;;;6.17;;
69894;SDS011;57172;52.034;5.090;2023-04-24T07:37:53;22.30;;;6.55;;
69894;SDS011;57172;52.034;5.090;2023-04-24T07:40:20;21.55;;;6.18;;
69894;SDS011;57172;52.034;5.090;2023-04-24T07:42:47;20.10;;;5.60;;
69894;SDS011;57172;52.034;5.090;2023-04-24T07:45:17;19.83;;;5.13;;
69894;SDS011;57172;52.034;5.090;2023-04-24T07:47:44;18.57;;;5.27;;
69894;SDS011;57172;52.034;5.090;2023-04-24T07:50:12;20.92;;;5.75;;
69894;SDS011;57172;52.034;5.090;2023-04-24T07:52:39;21.05;;;5.03;;
69894;SDS011;57172;52.034;5.090;2023-04-24T07:55:06;18.63;;;4.68;;
69894;SDS011;57172;52.034;5.090;2023-04-24T07:57:33;19.23;;;4.28;;
69894;SDS011;57172;52.034;5.090;2023-04-24T08:00:00;28.57;;;4.47;;
69894;SDS011;57172;52.034;5.090;2023-04-24T08:02:36;13.48;;;3.25;;
69894;SDS011;57172;52.034;5.090;2023-04-24T08:05:04;23.20;;;4.43;;
69894;SDS011;57172;52.034;5.090;2023-04-24T08:07:31;19.50;;;3.78;;
69894;SDS011;57172;52.034;5.090;2023-04-24T08:09:58;20.98;;;3.72;;
69894;SDS011;57172;52.034;5.090;2023-04-24T08:12:26;16.90;;;3.03;;
69894;SDS011;57172;52.034;5.090;2023-04-24T08:14:54;13.27;;;3.30;;
69894;SDS011;57172;52.034;5.090;2023-04-24T08:17:21;8.52;;;2.80;;
69894;SDS011;57172;52.034;5.090;2023-04-24T08:19:48;15.10;;;3.30;;
69894;SDS011;57172;52.034;5.090;2023-04-24T08:22:15;12.70;;;2.72;;
69894;SDS011;57172;52.034;5.090;2023-04-24T08:24:43;11.47;;;2.90;;
69894;SDS011;57172;52.034;5.090;2023-04-24T08:27:10;16.58;;;3.38;;
69894;SDS011;57172;52.034;5.090;2023-04-24T08:29:37;15.93;;;2.70;;
69894;SDS011;57172;52.034;5.090;2023-04-24T08:32:03;10.80;;;2.65;;
69894;SDS011;57172;52.034;5.090;2023-04-24T08:34:31;16.23;;;3.28;;
69894;SDS011;57172;52.034;5.090;2023-04-24T08:36:57;12.13;;;2.40;;
69894;SDS011;57172;52.034;5.090;2023-04-24T08:39:24;10.57;;;2.30;;
69894;SDS011;57172;52.034;5.090;2023-04-24T08:41:52;16.90;;;2.47;;
69894;SDS011;57172;52.034;5.090;2023-04-24T08:44:19;9.75;;;3.03;;
69894;SDS011;57172;52.034;5.090;2023-04-24T08:46:47;12.45;;;2.92;;
69894;SDS011;57172;52.034;5.090;2023-04-24T08:49:15;10.33;;;2.50;;
69894;SDS011;57172;52.034;5.090;2023-04-24T08:51:45;9.55;;;2.85;;
69894;SDS011;57172;52.034;5.090;2023-04-24T08:54:13;10.95;;;2.47;;
69894;SDS011;57172;52.034;5.090;2023-04-24T08:56:42;13.20;;;2.30;;
69894;SDS011;57172;52.034;5.090;2023-04-24T08:59:10;12.23;;;2.60;;
69894;SDS011;57172;52.034;5.090;2023-04-24T09:01:38;12.10;;;2.53;;
69894;SDS011;57172;52.034;5.090;2023-04-24T09:04:08;14.98;;;2.55;;
69894;SDS011;57172;52.034;5.090;2023-04-24T09:06:39;8.95;;;2.40;;
69894;SDS011;57172;52.034;5.090;2023-04-24T09:09:07;8.63;;;2.35;;
69894;SDS011;57172;52.034;5.090;2023-04-24T09:11:37;8.98;;;2.65;;
69894;SDS011;57172;52.034;5.090;2023-04-24T09:14:05;12.33;;;2.70;;
69894;SDS011;57172;52.034;5.090;2023-04-24T09:16:32;11.05;;;2.22;;
69894;SDS011;57172;52.034;5.090;2023-04-24T09:19:02;9.60;;;2.00;;
69894;SDS011;57172;52.034;5.090;2023-04-24T09:21:33;8.57;;;2.60;;
69894;SDS011;57172;52.034;5.090;2023-04-24T09:24:01;7.55;;;2.15;;
69894;SDS011;57172;52.034;5.090;2023-04-24T09:26:31;9.87;;;2.53;;
69894;SDS011;57172;52.034;5.090;2023-04-24T09:29:01;5.85;;;2.10;;
69894;SDS011;57172;52.034;5.090;2023-04-24T09:31:29;9.25;;;2.58;;
69894;SDS011;57172;52.034;5.090;2023-04-24T09:33:57;8.00;;;2.53;;
69894;SDS011;57172;52.034;5.090;2023-04-24T09:36:28;5.55;;;2.10;;
69894;SDS011;57172;52.034;5.090;2023-04-24T09:38:58;4.00;;;1.80;;
69894;SDS011;57172;52.034;5.090;2023-04-24T09:41:31;5.93;;;1.88;;
69894;SDS011;57172;52.034;5.090;2023-04-24T09:44:15;8.70;;;1.90;;
69894;SDS011;57172;52.034;5.090;2023-04-24T09:46:45;7.10;;;1.80;;
69894;SDS011;57172;52.034;5.090;2023-04-24T09:49:16;7.57;;;2.08;;
69894;SDS011;57172;52.034;5.090;2023-04-24T09:51:48;5.43;;;1.73;;
69894;SDS011;57172;52.034;5.090;2023-04-24T09:54:16;7.20;;;2.03;;
69894;SDS011;57172;52.034;5.090;2023-04-24T09:56:45;7.78;;;1.80;;
69894;SDS011;57172;52.034;5.090;2023-04-24T09:59:13;8.50;;;1.80;;
69894;SDS011;57172;52.034;5.090;2023-04-24T10:01:40;9.48;;;2.28;;
69894;SDS011;57172;52.034;5.090;2023-04-24T10:04:18;7.67;;;1.77;;
69894;SDS011;57172;52.034;5.090;2023-04-24T10:06:47;8.68;;;1.77;;
69894;SDS011;57172;52.034;5.090;2023-04-24T10:09:18;5.53;;;1.50;;
69894;SDS011;57172;52.034;5.090;2023-04-24T10:11:49;4.40;;;1.45;;
69894;SDS011;57172;52.034;5.090;2023-04-24T10:14:18;6.55;;;1.38;;
69894;SDS011;57172;52.034;5.090;2023-04-24T10:16:55;6.03;;;1.40;;
69894;SDS011;57172;52.034;5.090;2023-04-24T10:19:25;8.95;;;1.60;;
69894;SDS011;57172;52.034;5.090;2023-04-24T10:21:52;5.68;;;1.48;;
69894;SDS011;57172;52.034;5.090;2023-04-24T10:24:22;4.32;;;1.38;;
69894;SDS011;57172;52.034;5.090;2023-04-24T10:26:48;2.97;;;1.27;;
69894;SDS011;57172;52.034;5.090;2023-04-24T10:29:17;6.60;;;1.50;;
69894;SDS011;57172;52.034;5.090;2023-04-24T10:31:45;4.38;;;1.20;;
69894;SDS011;57172;52.034;5.090;2023-04-24T10:34:14;4.90;;;1.45;;
69894;SDS011;57172;52.034;5.090;2023-04-24T10:36:44;4.38;;;1.27;;
69894;SDS011;57172;52.034;5.090;2023-04-24T10:39:16;6.85;;;1.40;;
69894;SDS011;57172;52.034;5.090;2023-04-24T10:41:45;8.27;;;1.43;;
69894;SDS011;57172;52.034;5.090;2023-04-24T10:44:13;3.55;;;1.30;;
69894;SDS011;57172;52.034;5.090;2023-04-24T10:46:45;3.42;;;1.20;;
69894;SDS011;57172;52.034;5.090;2023-04-24T10:49:16;6.10;;;1.20;;
69894;SDS011;57172;52.034;5.090;2023-04-24T10:54:35;4.73;;;1.20;;
69894;SDS011;57172;52.034;5.090;2023-04-24T10:57:35;7.30;;;1.25;;
69894;SDS011;57172;52.034;5.090;2023-04-24T11:00:16;5.70;;;1.30;;
69894;SDS011;57172;52.034;5.090;2023-04-24T11:02:46;6.88;;;2.25;;
69894;SDS011;57172;52.034;5.090;2023-04-24T11:05:19;6.00;;;1.65;;
69894;SDS011;57172;52.034;5.090;2023-04-24T11:11:02;5.75;;;1.30;;
69894;SDS011;57172;52.034;5.090;2023-04-24T11:26:54;5.38;;;1.35;;
69894;SDS011;57172;52.034;5.090;2023-04-24T11:32:27;4.88;;;1.40;;
69894;SDS011;57172;52.034;5.090;2023-04-24T11:34:57;4.60;;;1.20;;
69894;SDS011;57172;52.034;5.090;2023-04-24T11:37:46;4.10;;;1.20;;
69894;SDS011;57172;52.034;5.090;2023-04-24T11:40:20;5.38;;;1.40;;
69894;SDS011;57172;52.034;5.090;2023-04-24T11:42:53;3.35;;;1.20;;
69894;SDS011;57172;52.034;5.090;2023-04-24T11:45:22;4.28;;;1.20;;
69894;SDS011;57172;52.034;5.090;2023-04-24T11:47:51;3.30;;;1.03;;
69894;SDS011;57172;52.034;5.090;2023-04-24T11:50:20;3.63;;;1.40;;
69894;SDS011;57172;52.034;5.090;2023-04-24T11:52:49;4.70;;;1.20;;
69894;SDS011;57172;52.034;5.090;2023-04-24T11:57:49;4.85;;;1.27;;
69894;SDS011;57172;52.034;5.090;2023-04-24T12:00:24;1.77;;;1.00;;
69894;SDS011;57172;52.034;5.090;2023-04-24T12:03:03;2.90;;;1.17;;
69894;SDS011;57172;52.034;5.090;2023-04-24T12:05:35;3.05;;;1.17;;
69894;SDS011;57172;52.034;5.090;2023-04-24T12:08:03;5.57;;;1.25;;
69894;SDS011;57172;52.034;5.090;2023-04-24T12:10:32;4.43;;;1.20;;
69894;SDS011;57172;52.034;5.090;2023-04-24T12:12:59;6.10;;;1.90;;
69894;SDS011;57172;52.034;5.090;2023-04-24T12:15:27;6.75;;;1.40;;
69894;SDS011;57172;52.034;5.090;2023-04-24T12:17:54;5.97;;;1.40;;
69894;SDS011;57172;52.034;5.090;2023-04-24T12:20:26;6.78;;;1.33;;
69894;SDS011;57172;52.034;5.090;2023-04-24T12:22:55;9.48;;;2.03;;
69894;SDS011;57172;52.034;5.090;2023-04-24T12:25:31;7.13;;;1.50;;
69894;SDS011;57172;52.034;5.090;2023-04-24T12:30:39;7.97;;;1.83;;
69894;SDS011;57172;52.034;5.090;2023-04-24T12:33:11;7.50;;;1.60;;
69894;SDS011;57172;52.034;5.090;2023-04-24T12:35:39;6.20;;;1.80;;
69894;SDS011;57172;52.034;5.090;2023-04-24T12:38:08;7.03;;;1.50;;
69894;SDS011;57172;52.034;5.090;2023-04-24T12:40:39;9.23;;;1.58;;
69894;SDS011;57172;52.034;5.090;2023-04-24T12:45:40;5.25;;;1.60;;
69894;SDS011;57172;52.034;5.090;2023-04-24T12:48:07;6.95;;;1.70;;
69894;SDS011;57172;52.034;5.090;2023-04-24T12:50:34;6.13;;;1.80;;
69894;SDS011;57172;52.034;5.090;2023-04-24T12:53:01;8.82;;;1.90;;
69894;SDS011;57172;52.034;5.090;2023-04-24T12:55:28;9.18;;;2.00;;
69894;SDS011;57172;52.034;5.090;2023-04-24T12:57:55;15.02;;;2.28;;
69894;SDS011;57172;52.034;5.090;2023-04-24T13:00:22;7.00;;;2.13;;
69894;SDS011;57172;52.034;5.090;2023-04-24T13:02:49;8.47;;;2.83;;
69894;SDS011;57172;52.034;5.090;2023-04-24T13:05:16;11.38;;;2.30;;
69894;SDS011;57172;52.034;5.090;2023-04-24T13:07:43;8.73;;;2.40;;
69894;SDS011;57172;52.034;5.090;2023-04-24T13:10:10;8.43;;;2.25;;
69894;SDS011;57172;52.034;5.090;2023-04-24T13:12:37;7.38;;;2.17;;
69894;SDS011;57172;52.034;5.090;2023-04-24T13:15:05;6.73;;;1.93;;
69894;SDS011;57172;52.034;5.090;2023-04-24T13:17:32;7.97;;;2.40;;
69894;SDS011;57172;52.034;5.090;2023-04-24T13:19:59;8.68;;;2.20;;
69894;SDS011;57172;52.034;5.090;2023-04-24T13:22:26;11.30;;;2.45;;
69894;SDS011;57172;52.034;5.090;2023-04-24T13:24:53;12.13;;;2.60;;
69894;SDS011;57172;52.034;5.090;2023-04-24T13:27:20;8.83;;;2.20;;
69894;SDS011;57172;52.034;5.090;2023-04-24T13:29:47;13.43;;;2.47;;
69894;SDS011;57172;52.034;5.090;2023-04-24T13:32:14;5.88;;;1.80;;
69894;SDS011;57172;52.034;5.090;2023-04-24T13:34:42;9.02;;;2.47;;
69894;SDS011;57172;52.034;5.090;2023-04-24T13:37:08;9.07;;;2.60;;
69894;SDS011;57172;52.034;5.090;2023-04-24T13:39:35;7.13;;;2.10;;
69894;SDS011;57172;52.034;5.090;2023-04-24T13:42:02;7.28;;;2.03;;
69894;SDS011;57172;52.034;5.090;2023-04-24T13:44:30;5.95;;;2.00;;
69894;SDS011;57172;52.034;5.090;2023-04-24T13:46:57;11.82;;;2.40;;
69894;SDS011;57172;52.034;5.090;2023-04-24T13:49:25;9.85;;;2.17;;
69894;SDS011;57172;52.034;5.090;2023-04-24T13:51:53;10.13;;;2.50;;
69894;SDS011;57172;52.034;5.090;2023-04-24T13:54:21;11.20;;;2.80;;
69894;SDS011;57172;52.034;5.090;2023-04-24T13:56:49;12.18;;;2.60;;
69894;SDS011;57172;52.034;5.090;2023-04-24T13:59:18;8.52;;;2.45;;
69894;SDS011;57172;52.034;5.090;2023-04-24T14:01:47;11.43;;;3.08;;
69894;SDS011;57172;52.034;5.090;2023-04-24T14:04:14;11.97;;;2.53;;
69894;SDS011;57172;52.034;5.090;2023-04-24T14:06:42;8.77;;;2.60;;
69894;SDS011;57172;52.034;5.090;2023-04-24T14:09:09;12.52;;;2.53;;
69894;SDS011;57172;52.034;5.090;2023-04-24T14:11:36;11.30;;;3.13;;
69894;SDS011;57172;52.034;5.090;2023-04-24T14:14:03;10.50;;;2.50;;
69894;SDS011;57172;52.034;5.090;2023-04-24T14:16:30;8.10;;;2.30;;
69894;SDS011;57172;52.034;5.090;2023-04-24T14:18:57;12.27;;;2.67;;
69894;SDS011;57172;52.034;5.090;2023-04-24T14:21:25;7.50;;;2.45;;
69894;SDS011;57172;52.034;5.090;2023-04-24T14:23:51;8.52;;;2.58;;
69894;SDS011;57172;52.034;5.090;2023-04-24T14:26:19;8.32;;;2.60;;
69894;SDS011;57172;52.034;5.090;2023-04-24T14:28:46;11.97;;;2.60;;
69894;SDS011;57172;52.034;5.090;2023-04-24T14:31:13;8.95;;;2.65;;
69894;SDS011;57172;52.034;5.090;2023-04-24T14:33:40;11.75;;;2.60;;
69894;SDS011;57172;52.034;5.090;2023-04-24T14:36:06;10.48;;;2.72;;
69894;SDS011;57172;52.034;5.090;2023-04-24T14:38:33;8.55;;;2.70;;
69894;SDS011;57172;52.034;5.090;2023-04-24T14:41:01;8.57;;;2.90;;
69894;SDS011;57172;52.034;5.090;2023-04-24T14:43:39;12.48;;;3.20;;
69894;SDS011;57172;52.034;5.090;2023-04-24T14:46:06;11.35;;;3.17;;
69894;SDS011;57172;52.034;5.090;2023-04-24T14:48:33;10.70;;;3.00;;
69894;SDS011;57172;52.034;5.090;2023-04-24T14:51:00;9.25;;;3.00;;
69894;SDS011;57172;52.034;5.090;2023-04-24T14:53:27;10.43;;;2.70;;
69894;SDS011;57172;52.034;5.090;2023-04-24T14:55:54;9.02;;;2.67;;
69894;SDS011;57172;52.034;5.090;2023-04-24T14:58:21;10.27;;;2.80;;
69894;SDS011;57172;52.034;5.090;2023-04-24T15:00:48;7.72;;;2.78;;
69894;SDS011;57172;52.034;5.090;2023-04-24T15:03:20;8.75;;;2.85;;
69894;SDS011;57172;52.034;5.090;2023-04-24T15:05:48;8.47;;;2.77;;
69894;SDS011;57172;52.034;5.090;2023-04-24T15:08:16;12.27;;;3.10;;
69894;SDS011;57172;52.034;5.090;2023-04-24T15:10:43;9.90;;;3.38;;
69894;SDS011;57172;52.034;5.090;2023-04-24T15:13:11;12.43;;;3.17;;
69894;SDS011;57172;52.034;5.090;2023-04-24T15:15:37;9.57;;;2.92;;
69894;SDS011;57172;52.034;5.090;2023-04-24T15:18:04;10.47;;;3.10;;
69894;SDS011;57172;52.034;5.090;2023-04-24T15:20:31;13.85;;;3.10;;
69894;SDS011;57172;52.034;5.090;2023-04-24T15:22:58;11.48;;;3.05;;